sensor_id;sensor_type;location;lat;lon;timestamp;pressure;altitude;pressure_sealevel;temperature;humidity
51195;BME280;37259;49.972;19.850;2023-04-28T00:00:44;99150;;;2.5;77.3
51195;BME280;37259;49.972;19.850;2023-04-28T00:01:44;99150;;;2.5;77.3
51195;BME280;37259;49.972;19.850;2023-04-28T00:02:44;99140;;;2.5;77.3
51195;BME280;37259;49.972;19.850;2023-04-28T00:03:44;99140;;;2.5;77.3
51195;BME280;37259;49.972;19.850;2023-04-28T00:04:44;99140;;;2.4;77.3
51195;BME280;37259;49.972;19.850;2023-04-28T00:05:44;99140;;;2.4;77.4
51195;BME280;37259;49.972;19.850;2023-04-28T00:06:44;99140;;;2.4;77.4
51195;BME280;37259;49.972;19.850;2023-04-28T00:07:44;99140;;;2.3;78.3
51195;BME280;37259;49.972;19.850;2023-04-28T00:08:44;99140;;;2.3;78.3
51195;BME280;37259;49.972;19.850;2023-04-28T00:09:44;99140;;;2.3;78.7
51195;BME280;37259;49.972;19.850;2023-04-28T00:10:44;99140;;;2.3;78.7
51195;BME280;37259;49.972;19.850;2023-04-28T00:11:45;99150;;;2.3;78.6
51195;BME280;37259;49.972;19.850;2023-04-28T00:12:44;99150;;;2.3;78.5
51195;BME280;37259;49.972;19.850;2023-04-28T00:13:45;99150;;;2.3;78.5
51195;BME280;37259;49.972;19.850;2023-04-28T00:14:44;99150;;;2.3;78.6
51195;BME280;37259;49.972;19.850;2023-04-28T00:15:44;99150;;;2.3;78.6
51195;BME280;37259;49.972;19.850;2023-04-28T00:16:44;99150;;;2.3;78.7
51195;BME280;37259;49.972;19.850;2023-04-28T00:17:44;99150;;;2.3;78.7
51195;BME280;37259;49.972;19.850;2023-04-28T00:18:44;99160;;;2.3;78.7
51195;BME280;37259;49.972;19.850;2023-04-28T00:19:44;99160;;;2.2;78.7
51195;BME280;37259;49.972;19.850;2023-04-28T00:20:44;99160;;;2.2;78.7
51195;BME280;37259;49.972;19.850;2023-04-28T00:21:44;99160;;;2.2;78.9
51195;BME280;37259;49.972;19.850;2023-04-28T00:22:45;99160;;;2.2;78.9
51195;BME280;37259;49.972;19.850;2023-04-28T00:23:44;99160;;;2.2;79
51195;BME280;37259;49.972;19.850;2023-04-28T00:24:44;99160;;;2.2;79
51195;BME280;37259;49.972;19.850;2023-04-28T00:25:49;99160;;;2.2;79
51195;BME280;37259;49.972;19.850;2023-04-28T00:26:44;99160;;;2.2;79
51195;BME280;37259;49.972;19.850;2023-04-28T00:27:44;99160;;;2.2;79
51195;BME280;37259;49.972;19.850;2023-04-28T00:28:45;99150;;;2.1;79.3
51195;BME280;37259;49.972;19.850;2023-04-28T00:29:44;99150;;;2.1;79.3
51195;BME280;37259;49.972;19.850;2023-04-28T00:30:44;99150;;;1.9;80.8
51195;BME280;37259;49.972;19.850;2023-04-28T00:31:45;99150;;;1.9;81.2
51195;BME280;37259;49.972;19.850;2023-04-28T00:32:44;99150;;;1.9;81.2
51195;BME280;37259;49.972;19.850;2023-04-28T00:33:45;99150;;;1.9;81.2
51195;BME280;37259;49.972;19.850;2023-04-28T00:34:44;99150;;;1.9;81.2
51195;BME280;37259;49.972;19.850;2023-04-28T00:35:44;99150;;;1.9;81
51195;BME280;37259;49.972;19.850;2023-04-28T00:36:44;99140;;;1.9;80.9
51195;BME280;37259;49.972;19.850;2023-04-28T00:37:44;99140;;;1.9;80.9
51195;BME280;37259;49.972;19.850;2023-04-28T00:38:44;99140;;;1.9;80.7
51195;BME280;37259;49.972;19.850;2023-04-28T00:39:44;99140;;;1.9;80.7
51195;BME280;37259;49.972;19.850;2023-04-28T00:40:44;99140;;;1.9;80.5
51195;BME280;37259;49.972;19.850;2023-04-28T00:41:44;99140;;;1.9;80.5
51195;BME280;37259;49.972;19.850;2023-04-28T00:42:44;99140;;;1.9;80.7
51195;BME280;37259;49.972;19.850;2023-04-28T00:43:45;99140;;;1.9;80.7
51195;BME280;37259;49.972;19.850;2023-04-28T00:44:44;99140;;;1.8;80.7
51195;BME280;37259;49.972;19.850;2023-04-28T00:45:44;99140;;;1.8;80.7
51195;BME280;37259;49.972;19.850;2023-04-28T00:46:44;99140;;;1.8;80.7
51195;BME280;37259;49.972;19.850;2023-04-28T00:47:44;99140;;;1.8;80.6
51195;BME280;37259;49.972;19.850;2023-04-28T00:48:44;99140;;;1.8;80.6
51195;BME280;37259;49.972;19.850;2023-04-28T00:49:44;99140;;;1.8;80.5
51195;BME280;37259;49.972;19.850;2023-04-28T00:50:45;99140;;;1.8;80.5
51195;BME280;37259;49.972;19.850;2023-04-28T00:51:44;99130;;;1.8;80.4
51195;BME280;37259;49.972;19.850;2023-04-28T00:52:44;99140;;;1.8;80.4
51195;BME280;37259;49.972;19.850;2023-04-28T00:53:44;99140;;;1.8;80.7
51195;BME280;37259;49.972;19.850;2023-04-28T00:54:45;99140;;;1.8;80.7
51195;BME280;37259;49.972;19.850;2023-04-28T00:55:45;99140;;;1.8;80.9
51195;BME280;37259;49.972;19.850;2023-04-28T00:56:44;99130;;;1.8;80.9
51195;BME280;37259;49.972;19.850;2023-04-28T00:57:45;99130;;;1.8;81.2
51195;BME280;37259;49.972;19.850;2023-04-28T00:58:44;99130;;;1.8;81.4
51195;BME280;37259;49.972;19.850;2023-04-28T00:59:44;99130;;;1.8;81.5
51195;BME280;37259;49.972;19.850;2023-04-28T01:00:44;99130;;;1.8;81.5
51195;BME280;37259;49.972;19.850;2023-04-28T01:01:44;99130;;;1.8;81.7
51195;BME280;37259;49.972;19.850;2023-04-28T01:02:45;99130;;;1.8;81.7
51195;BME280;37259;49.972;19.850;2023-04-28T01:03:44;99140;;;1.8;81.7
51195;BME280;37259;49.972;19.850;2023-04-28T01:04:44;99140;;;1.8;81.7
51195;BME280;37259;49.972;19.850;2023-04-28T01:05:45;99140;;;1.8;81.7
51195;BME280;37259;49.972;19.850;2023-04-28T01:06:44;99140;;;1.8;81.7
51195;BME280;37259;49.972;19.850;2023-04-28T01:07:44;99140;;;1.8;81.7
51195;BME280;37259;49.972;19.850;2023-04-28T01:08:46;99150;;;1.9;81.7
51195;BME280;37259;49.972;19.850;2023-04-28T01:09:44;99150;;;1.9;81.7
51195;BME280;37259;49.972;19.850;2023-04-28T01:10:44;99150;;;1.9;81.8
51195;BME280;37259;49.972;19.850;2023-04-28T01:11:44;99150;;;1.9;81.7
51195;BME280;37259;49.972;19.850;2023-04-28T01:12:44;99150;;;1.9;81.7
51195;BME280;37259;49.972;19.850;2023-04-28T01:13:45;99150;;;1.8;81.9
51195;BME280;37259;49.972;19.850;2023-04-28T01:14:44;99150;;;1.8;81.8
51195;BME280;37259;49.972;19.850;2023-04-28T01:15:44;99150;;;1.8;81.8
51195;BME280;37259;49.972;19.850;2023-04-28T01:16:45;99150;;;1.8;81.7
51195;BME280;37259;49.972;19.850;2023-04-28T01:17:44;99150;;;1.8;81.7
51195;BME280;37259;49.972;19.850;2023-04-28T01:18:45;99150;;;1.8;81.7
51195;BME280;37259;49.972;19.850;2023-04-28T01:19:45;99150;;;1.8;81.7
51195;BME280;37259;49.972;19.850;2023-04-28T01:20:44;99150;;;1.8;81.6
51195;BME280;37259;49.972;19.850;2023-04-28T01:21:44;99150;;;1.8;81.6
51195;BME280;37259;49.972;19.850;2023-04-28T01:22:44;99150;;;1.8;81.5
51195;BME280;37259;49.972;19.850;2023-04-28T01:23:44;99150;;;1.8;81.5
51195;BME280;37259;49.972;19.850;2023-04-28T01:24:44;99150;;;1.8;81.5
51195;BME280;37259;49.972;19.850;2023-04-28T01:25:45;99150;;;1.8;81.5
51195;BME280;37259;49.972;19.850;2023-04-28T01:26:44;99150;;;1.8;81.5
51195;BME280;37259;49.972;19.850;2023-04-28T01:27:44;99150;;;1.8;81.4
51195;BME280;37259;49.972;19.850;2023-04-28T01:28:45;99150;;;1.8;81.4
51195;BME280;37259;49.972;19.850;2023-04-28T01:29:44;99150;;;1.8;81.4
51195;BME280;37259;49.972;19.850;2023-04-28T01:30:44;99150;;;1.8;81.4
51195;BME280;37259;49.972;19.850;2023-04-28T01:31:44;99150;;;1.8;81.4
51195;BME280;37259;49.972;19.850;2023-04-28T01:32:44;99150;;;1.8;81.5
51195;BME280;37259;49.972;19.850;2023-04-28T01:33:44;99150;;;1.8;81.4
51195;BME280;37259;49.972;19.850;2023-04-28T01:34:45;99150;;;1.8;81.4
51195;BME280;37259;49.972;19.850;2023-04-28T01:35:45;99150;;;1.7;81.4
51195;BME280;37259;49.972;19.850;2023-04-28T01:36:44;99150;;;1.7;81.4
51195;BME280;37259;49.972;19.850;2023-04-28T01:37:44;99150;;;1.7;81.3
51195;BME280;37259;49.972;19.850;2023-04-28T01:38:44;99150;;;1.7;81.3
51195;BME280;37259;49.972;19.850;2023-04-28T01:39:44;99150;;;1.6;81.4
51195;BME280;37259;49.972;19.850;2023-04-28T01:40:44;99150;;;1.6;81.6
51195;BME280;37259;49.972;19.850;2023-04-28T01:41:44;99150;;;1.6;81.6
51195;BME280;37259;49.972;19.850;2023-04-28T01:42:44;99150;;;1.5;82
51195;BME280;37259;49.972;19.850;2023-04-28T01:43:45;99150;;;1.5;82
51195;BME280;37259;49.972;19.850;2023-04-28T01:44:44;99150;;;1.5;82
51195;BME280;37259;49.972;19.850;2023-04-28T01:45:44;99150;;;1.5;82
51195;BME280;37259;49.972;19.850;2023-04-28T01:46:44;99150;;;1.5;82
51195;BME280;37259;49.972;19.850;2023-04-28T01:47:44;99150;;;1.6;82
51195;BME280;37259;49.972;19.850;2023-04-28T01:48:44;99150;;;1.6;82
51195;BME280;37259;49.972;19.850;2023-04-28T01:49:44;99150;;;1.6;82
51195;BME280;37259;49.972;19.850;2023-04-28T01:50:44;99150;;;1.6;82
51195;BME280;37259;49.972;19.850;2023-04-28T01:51:44;99150;;;1.7;82
51195;BME280;37259;49.972;19.850;2023-04-28T01:52:45;99150;;;1.7;82
51195;BME280;37259;49.972;19.850;2023-04-28T01:53:44;99150;;;1.7;81.9
51195;BME280;37259;49.972;19.850;2023-04-28T01:54:45;99150;;;1.7;81.9
51195;BME280;37259;49.972;19.850;2023-04-28T01:55:45;99150;;;1.7;81.9
51195;BME280;37259;49.972;19.850;2023-04-28T01:56:44;99150;;;1.7;81.9
51195;BME280;37259;49.972;19.850;2023-04-28T01:57:44;99150;;;1.8;81.9
51195;BME280;37259;49.972;19.850;2023-04-28T01:58:44;99150;;;1.8;81.9
51195;BME280;37259;49.972;19.850;2023-04-28T01:59:45;99150;;;1.8;81.9
51195;BME280;37259;49.972;19.850;2023-04-28T02:00:44;99150;;;1.8;81.9
51195;BME280;37259;49.972;19.850;2023-04-28T02:01:44;99140;;;1.8;81.9
51195;BME280;37259;49.972;19.850;2023-04-28T02:02:44;99140;;;1.8;81.9
51195;BME280;37259;49.972;19.850;2023-04-28T02:03:45;99140;;;1.8;81.8
51195;BME280;37259;49.972;19.850;2023-04-28T02:04:45;99140;;;1.8;81.8
51195;BME280;37259;49.972;19.850;2023-04-28T02:05:45;99140;;;1.9;81.8
51195;BME280;37259;49.972;19.850;2023-04-28T02:06:45;99140;;;1.9;81.8
51195;BME280;37259;49.972;19.850;2023-04-28T02:07:45;99140;;;1.9;81.8
51195;BME280;37259;49.972;19.850;2023-04-28T02:08:45;99140;;;1.9;81.7
51195;BME280;37259;49.972;19.850;2023-04-28T02:09:45;99140;;;1.9;81.7
51195;BME280;37259;49.972;19.850;2023-04-28T02:10:45;99140;;;1.9;81.7
51195;BME280;37259;49.972;19.850;2023-04-28T02:11:45;99140;;;1.9;81.7
51195;BME280;37259;49.972;19.850;2023-04-28T02:12:45;99140;;;1.9;81.6
51195;BME280;37259;49.972;19.850;2023-04-28T02:13:45;99140;;;1.9;81.6
51195;BME280;37259;49.972;19.850;2023-04-28T02:14:45;99140;;;1.9;81.5
51195;BME280;37259;49.972;19.850;2023-04-28T02:15:45;99140;;;1.9;81.5
51195;BME280;37259;49.972;19.850;2023-04-28T02:16:45;99140;;;2;81.5
51195;BME280;37259;49.972;19.850;2023-04-28T02:17:45;99140;;;2;81.5
51195;BME280;37259;49.972;19.850;2023-04-28T02:18:45;99150;;;2;81.4
51195;BME280;37259;49.972;19.850;2023-04-28T02:19:45;99150;;;2;81.4
51195;BME280;37259;49.972;19.850;2023-04-28T02:20:44;99150;;;2;81.3
51195;BME280;37259;49.972;19.850;2023-04-28T02:21:45;99150;;;2;81.3
51195;BME280;37259;49.972;19.850;2023-04-28T02:22:45;99150;;;2;81.3
51195;BME280;37259;49.972;19.850;2023-04-28T02:23:45;99150;;;2;81.3
51195;BME280;37259;49.972;19.850;2023-04-28T02:24:45;99150;;;2.1;81.2
51195;BME280;37259;49.972;19.850;2023-04-28T02:25:45;99150;;;2.1;81.2
51195;BME280;37259;49.972;19.850;2023-04-28T02:26:44;99150;;;2;81.2
51195;BME280;37259;49.972;19.850;2023-04-28T02:27:45;99150;;;2;81.2
51195;BME280;37259;49.972;19.850;2023-04-28T02:28:45;99150;;;2;81.2
51195;BME280;37259;49.972;19.850;2023-04-28T02:29:45;99150;;;2;81.2
51195;BME280;37259;49.972;19.850;2023-04-28T02:30:44;99150;;;1.9;81.2
51195;BME280;37259;49.972;19.850;2023-04-28T02:31:45;99150;;;1.9;81.3
51195;BME280;37259;49.972;19.850;2023-04-28T02:32:45;99150;;;1.9;81.3
51195;BME280;37259;49.972;19.850;2023-04-28T02:33:45;99160;;;1.9;81.3
51195;BME280;37259;49.972;19.850;2023-04-28T02:34:45;99160;;;1.9;81.3
51195;BME280;37259;49.972;19.850;2023-04-28T02:35:45;99160;;;1.9;81.3
51195;BME280;37259;49.972;19.850;2023-04-28T02:36:45;99160;;;1.9;81.3
51195;BME280;37259;49.972;19.850;2023-04-28T02:37:45;99160;;;1.9;81.3
51195;BME280;37259;49.972;19.850;2023-04-28T02:38:45;99160;;;1.9;81.3
51195;BME280;37259;49.972;19.850;2023-04-28T02:39:45;99160;;;1.9;81.3
51195;BME280;37259;49.972;19.850;2023-04-28T02:40:45;99160;;;1.9;81.3
51195;BME280;37259;49.972;19.850;2023-04-28T02:41:45;99160;;;1.9;81.3
51195;BME280;37259;49.972;19.850;2023-04-28T02:42:45;99160;;;1.9;81.3
51195;BME280;37259;49.972;19.850;2023-04-28T02:43:45;99160;;;1.9;81.3
51195;BME280;37259;49.972;19.850;2023-04-28T02:44:44;99160;;;1.9;81.4
51195;BME280;37259;49.972;19.850;2023-04-28T02:45:45;99160;;;2;81.4
51195;BME280;37259;49.972;19.850;2023-04-28T02:46:45;99160;;;2;81.4
51195;BME280;37259;49.972;19.850;2023-04-28T02:47:45;99160;;;2;81.4
51195;BME280;37259;49.972;19.850;2023-04-28T02:48:45;99160;;;2;81.4
51195;BME280;37259;49.972;19.850;2023-04-28T02:49:45;99160;;;2;81.3
51195;BME280;37259;49.972;19.850;2023-04-28T02:50:45;99160;;;2;81.3
51195;BME280;37259;49.972;19.850;2023-04-28T02:51:45;99160;;;2;81.3
51195;BME280;37259;49.972;19.850;2023-04-28T02:52:44;99160;;;2;81.3
51195;BME280;37259;49.972;19.850;2023-04-28T02:53:45;99150;;;2;81.2
51195;BME280;37259;49.972;19.850;2023-04-28T02:54:45;99150;;;2;81.2
51195;BME280;37259;49.972;19.850;2023-04-28T02:55:45;99150;;;1.9;81.4
51195;BME280;37259;49.972;19.850;2023-04-28T02:56:44;99150;;;1.9;81.4
51195;BME280;37259;49.972;19.850;2023-04-28T02:57:44;99150;;;1.9;81.4
51195;BME280;37259;49.972;19.850;2023-04-28T02:58:45;99150;;;1.9;81.4
51195;BME280;37259;49.972;19.850;2023-04-28T02:59:45;99140;;;1.9;81.3
51195;BME280;37259;49.972;19.850;2023-04-28T03:00:45;99140;;;1.9;81.3
51195;BME280;37259;49.972;19.850;2023-04-28T03:01:45;99140;;;1.9;81.3
51195;BME280;37259;49.972;19.850;2023-04-28T03:02:45;99140;;;1.9;81.3
51195;BME280;37259;49.972;19.850;2023-04-28T03:03:44;99140;;;1.9;81.3
51195;BME280;37259;49.972;19.850;2023-04-28T03:04:45;99150;;;1.9;81.3
51195;BME280;37259;49.972;19.850;2023-04-28T03:05:45;99150;;;1.9;81.3
51195;BME280;37259;49.972;19.850;2023-04-28T03:06:45;99150;;;1.9;81.3
51195;BME280;37259;49.972;19.850;2023-04-28T03:07:45;99150;;;1.9;81.3
51195;BME280;37259;49.972;19.850;2023-04-28T03:08:45;99150;;;1.9;81.3
51195;BME280;37259;49.972;19.850;2023-04-28T03:09:45;99150;;;1.8;81.2
51195;BME280;37259;49.972;19.850;2023-04-28T03:10:45;99150;;;1.8;81.1
51195;BME280;37259;49.972;19.850;2023-04-28T03:11:45;99150;;;1.8;81.1
51195;BME280;37259;49.972;19.850;2023-04-28T03:12:45;99150;;;1.8;81.1
51195;BME280;37259;49.972;19.850;2023-04-28T03:13:45;99150;;;1.8;81.1
51195;BME280;37259;49.972;19.850;2023-04-28T03:14:44;99150;;;1.8;81.1
51195;BME280;37259;49.972;19.850;2023-04-28T03:15:45;99150;;;1.8;81.1
51195;BME280;37259;49.972;19.850;2023-04-28T03:16:45;99140;;;1.8;81
51195;BME280;37259;49.972;19.850;2023-04-28T03:17:45;99150;;;1.8;81.1
51195;BME280;37259;49.972;19.850;2023-04-28T03:18:45;99150;;;1.7;81.1
51195;BME280;37259;49.972;19.850;2023-04-28T03:19:45;99150;;;1.7;81.1
51195;BME280;37259;49.972;19.850;2023-04-28T03:20:45;99150;;;1.7;81.2
51195;BME280;37259;49.972;19.850;2023-04-28T03:21:45;99150;;;1.7;81.2
51195;BME280;37259;49.972;19.850;2023-04-28T03:22:44;99150;;;1.7;81.2
51195;BME280;37259;49.972;19.850;2023-04-28T03:23:45;99150;;;1.7;81.3
51195;BME280;37259;49.972;19.850;2023-04-28T03:24:45;99150;;;1.7;81.3
51195;BME280;37259;49.972;19.850;2023-04-28T03:25:45;99150;;;1.7;81.4
51195;BME280;37259;49.972;19.850;2023-04-28T03:26:45;99150;;;1.7;81.4
51195;BME280;37259;49.972;19.850;2023-04-28T03:27:45;99150;;;1.7;81.4
51195;BME280;37259;49.972;19.850;2023-04-28T03:28:45;99140;;;1.7;81.5
51195;BME280;37259;49.972;19.850;2023-04-28T03:29:45;99140;;;1.7;81.5
51195;BME280;37259;49.972;19.850;2023-04-28T03:30:44;99140;;;1.7;81.5
51195;BME280;37259;49.972;19.850;2023-04-28T03:31:45;99140;;;1.7;81.5
51195;BME280;37259;49.972;19.850;2023-04-28T03:32:45;99150;;;1.6;81.4
51195;BME280;37259;49.972;19.850;2023-04-28T03:33:44;99150;;;1.6;81.4
51195;BME280;37259;49.972;19.850;2023-04-28T03:34:44;99150;;;1.6;81.4
51195;BME280;37259;49.972;19.850;2023-04-28T03:35:45;99150;;;1.7;81.4
51195;BME280;37259;49.972;19.850;2023-04-28T03:36:45;99150;;;1.7;81.4
51195;BME280;37259;49.972;19.850;2023-04-28T03:37:45;99150;;;1.7;81.4
51195;BME280;37259;49.972;19.850;2023-04-28T03:38:45;99150;;;1.7;81.4
51195;BME280;37259;49.972;19.850;2023-04-28T03:39:45;99150;;;1.7;81.3
51195;BME280;37259;49.972;19.850;2023-04-28T03:40:45;99150;;;1.7;81.3
51195;BME280;37259;49.972;19.850;2023-04-28T03:41:44;99150;;;1.7;81.3
51195;BME280;37259;49.972;19.850;2023-04-28T03:42:45;99150;;;1.7;81.3
51195;BME280;37259;49.972;19.850;2023-04-28T03:43:44;99150;;;1.7;81.3
51195;BME280;37259;49.972;19.850;2023-04-28T03:44:44;99150;;;1.7;81.2
51195;BME280;37259;49.972;19.850;2023-04-28T03:45:44;99150;;;1.7;81.3
51195;BME280;37259;49.972;19.850;2023-04-28T03:46:44;99150;;;1.7;81.3
51195;BME280;37259;49.972;19.850;2023-04-28T03:47:45;99150;;;1.7;81.3
51195;BME280;37259;49.972;19.850;2023-04-28T03:48:44;99150;;;1.7;81.3
51195;BME280;37259;49.972;19.850;2023-04-28T03:49:45;99150;;;1.7;81.3
51195;BME280;37259;49.972;19.850;2023-04-28T03:50:44;99160;;;1.7;81.2
51195;BME280;37259;49.972;19.850;2023-04-28T03:51:45;99160;;;1.8;81.2
51195;BME280;37259;49.972;19.850;2023-04-28T03:52:45;99160;;;1.8;81.2
51195;BME280;37259;49.972;19.850;2023-04-28T03:53:45;99160;;;1.8;81.2
51195;BME280;37259;49.972;19.850;2023-04-28T03:54:45;99160;;;1.8;81.2
51195;BME280;37259;49.972;19.850;2023-04-28T03:55:45;99160;;;1.8;81.2
51195;BME280;37259;49.972;19.850;2023-04-28T03:56:44;99150;;;1.8;81.2
51195;BME280;37259;49.972;19.850;2023-04-28T03:57:45;99150;;;1.8;81.2
51195;BME280;37259;49.972;19.850;2023-04-28T03:58:45;99150;;;1.8;81.2
51195;BME280;37259;49.972;19.850;2023-04-28T03:59:45;99150;;;1.8;81.3
51195;BME280;37259;49.972;19.850;2023-04-28T04:00:45;99150;;;1.8;81.3
51195;BME280;37259;49.972;19.850;2023-04-28T04:01:45;99150;;;1.8;81.3
51195;BME280;37259;49.972;19.850;2023-04-28T04:02:45;99150;;;1.8;81.3
51195;BME280;37259;49.972;19.850;2023-04-28T04:03:45;99150;;;1.8;81.3
51195;BME280;37259;49.972;19.850;2023-04-28T04:04:45;99150;;;1.8;81.3
51195;BME280;37259;49.972;19.850;2023-04-28T04:05:45;99150;;;1.8;81.4
51195;BME280;37259;49.972;19.850;2023-04-28T04:06:44;99150;;;1.8;81.5
51195;BME280;37259;49.972;19.850;2023-04-28T04:07:45;99150;;;1.8;81.5
51195;BME280;37259;49.972;19.850;2023-04-28T04:08:45;99150;;;1.8;81.8
51195;BME280;37259;49.972;19.850;2023-04-28T04:09:45;99150;;;1.8;81.8
51195;BME280;37259;49.972;19.850;2023-04-28T04:10:45;99150;;;1.8;81.8
51195;BME280;37259;49.972;19.850;2023-04-28T04:11:45;99150;;;1.8;81.9
51195;BME280;37259;49.972;19.850;2023-04-28T04:12:45;99150;;;1.8;82
51195;BME280;37259;49.972;19.850;2023-04-28T04:13:45;99150;;;1.9;82
51195;BME280;37259;49.972;19.850;2023-04-28T04:14:45;99150;;;1.9;82
51195;BME280;37259;49.972;19.850;2023-04-28T04:15:45;99150;;;1.9;82
51195;BME280;37259;49.972;19.850;2023-04-28T04:16:45;99150;;;1.9;82
51195;BME280;37259;49.972;19.850;2023-04-28T04:17:45;99150;;;1.9;82
51195;BME280;37259;49.972;19.850;2023-04-28T04:18:45;99150;;;1.9;82
51195;BME280;37259;49.972;19.850;2023-04-28T04:19:45;99150;;;1.9;82
51195;BME280;37259;49.972;19.850;2023-04-28T04:20:45;99150;;;2;81.9
51195;BME280;37259;49.972;19.850;2023-04-28T04:21:44;99150;;;2;81.9
51195;BME280;37259;49.972;19.850;2023-04-28T04:22:45;99150;;;2;81.9
51195;BME280;37259;49.972;19.850;2023-04-28T04:23:45;99150;;;2;81.9
51195;BME280;37259;49.972;19.850;2023-04-28T04:24:45;99140;;;2.1;81.8
51195;BME280;37259;49.972;19.850;2023-04-28T04:25:45;99140;;;2.1;81.8
51195;BME280;37259;49.972;19.850;2023-04-28T04:26:44;99140;;;2.1;81.8
51195;BME280;37259;49.972;19.850;2023-04-28T04:27:45;99140;;;2.1;81.8
51195;BME280;37259;49.972;19.850;2023-04-28T04:28:45;99150;;;2.1;81.7
51195;BME280;37259;49.972;19.850;2023-04-28T04:29:45;99150;;;2.2;81.6
51195;BME280;37259;49.972;19.850;2023-04-28T04:30:45;99150;;;2.2;81.6
51195;BME280;37259;49.972;19.850;2023-04-28T04:31:45;99150;;;2.2;81.6
51195;BME280;37259;49.972;19.850;2023-04-28T04:32:45;99150;;;2.2;81.6
51195;BME280;37259;49.972;19.850;2023-04-28T04:33:45;99150;;;2.2;81.6
51195;BME280;37259;49.972;19.850;2023-04-28T04:34:45;99140;;;2.3;81.6
51195;BME280;37259;49.972;19.850;2023-04-28T04:35:45;99140;;;2.3;81.6
51195;BME280;37259;49.972;19.850;2023-04-28T04:36:45;99140;;;2.3;81.6
51195;BME280;37259;49.972;19.850;2023-04-28T04:37:45;99140;;;2.3;81.6
51195;BME280;37259;49.972;19.850;2023-04-28T04:38:45;99140;;;2.4;81.6
51195;BME280;37259;49.972;19.850;2023-04-28T04:39:45;99140;;;2.4;81.6
51195;BME280;37259;49.972;19.850;2023-04-28T04:40:45;99140;;;2.5;81.6
51195;BME280;37259;49.972;19.850;2023-04-28T04:41:45;99140;;;2.5;81.6
51195;BME280;37259;49.972;19.850;2023-04-28T04:42:45;99140;;;2.5;81.6
51195;BME280;37259;49.972;19.850;2023-04-28T04:43:45;99140;;;2.6;81.5
51195;BME280;37259;49.972;19.850;2023-04-28T04:44:45;99140;;;2.6;81.5
51195;BME280;37259;49.972;19.850;2023-04-28T04:45:45;99140;;;2.6;81.5
51195;BME280;37259;49.972;19.850;2023-04-28T04:46:45;99140;;;2.6;81.5
51195;BME280;37259;49.972;19.850;2023-04-28T04:47:45;99140;;;2.7;81.5
51195;BME280;37259;49.972;19.850;2023-04-28T04:48:45;99140;;;2.7;81.5
51195;BME280;37259;49.972;19.850;2023-04-28T04:49:45;99140;;;2.8;81.5
51195;BME280;37259;49.972;19.850;2023-04-28T04:50:45;99140;;;2.8;81.5
51195;BME280;37259;49.972;19.850;2023-04-28T04:51:45;99140;;;2.9;81.6
51195;BME280;37259;49.972;19.850;2023-04-28T04:52:45;99140;;;2.9;81.6
51195;BME280;37259;49.972;19.850;2023-04-28T04:53:45;99140;;;3;81.5
51195;BME280;37259;49.972;19.850;2023-04-28T04:54:45;99140;;;3;81.5
51195;BME280;37259;49.972;19.850;2023-04-28T04:55:45;99140;;;3;81.5
51195;BME280;37259;49.972;19.850;2023-04-28T04:56:45;99140;;;3.1;81.4
51195;BME280;37259;49.972;19.850;2023-04-28T04:57:45;99140;;;3.1;81.4
51195;BME280;37259;49.972;19.850;2023-04-28T04:58:45;99140;;;3.1;81.4
51195;BME280;37259;49.972;19.850;2023-04-28T04:59:45;99140;;;3.1;81.4
51195;BME280;37259;49.972;19.850;2023-04-28T05:00:45;99140;;;3.2;81.3
51195;BME280;37259;49.972;19.850;2023-04-28T05:01:45;99140;;;3.3;81.3
51195;BME280;37259;49.972;19.850;2023-04-28T05:02:45;99140;;;3.3;81.3
51195;BME280;37259;49.972;19.850;2023-04-28T05:03:45;99140;;;3.4;81.3
51195;BME280;37259;49.972;19.850;2023-04-28T05:04:45;99140;;;3.4;81.3
51195;BME280;37259;49.972;19.850;2023-04-28T05:05:45;99140;;;3.5;81.1
51195;BME280;37259;49.972;19.850;2023-04-28T05:06:45;99140;;;3.5;81
51195;BME280;37259;49.972;19.850;2023-04-28T05:07:45;99140;;;3.5;81
51195;BME280;37259;49.972;19.850;2023-04-28T05:08:45;99140;;;3.6;80.9
51195;BME280;37259;49.972;19.850;2023-04-28T05:09:45;99150;;;3.6;80.9
51195;BME280;37259;49.972;19.850;2023-04-28T05:10:45;99150;;;3.7;80.8
51195;BME280;37259;49.972;19.850;2023-04-28T05:11:45;99150;;;3.7;80.7
51195;BME280;37259;49.972;19.850;2023-04-28T05:12:45;99150;;;3.7;80.7
51195;BME280;37259;49.972;19.850;2023-04-28T05:13:45;99150;;;3.8;80.5
51195;BME280;37259;49.972;19.850;2023-04-28T05:14:45;99150;;;3.9;80.4
51195;BME280;37259;49.972;19.850;2023-04-28T05:15:45;99150;;;3.9;80.4
51195;BME280;37259;49.972;19.850;2023-04-28T05:16:45;99150;;;3.9;80.4
51195;BME280;37259;49.972;19.850;2023-04-28T05:17:45;99150;;;4;80.3
51195;BME280;37259;49.972;19.850;2023-04-28T05:18:45;99140;;;4.1;80.1
51195;BME280;37259;49.972;19.850;2023-04-28T05:19:45;99140;;;4.1;80.1
51195;BME280;37259;49.972;19.850;2023-04-28T05:20:45;99150;;;4.2;79.8
51195;BME280;37259;49.972;19.850;2023-04-28T05:21:45;99150;;;4.2;79.8
51195;BME280;37259;49.972;19.850;2023-04-28T05:22:45;99150;;;4.3;79.6
51195;BME280;37259;49.972;19.850;2023-04-28T05:23:45;99150;;;4.4;79.5
51195;BME280;37259;49.972;19.850;2023-04-28T05:24:45;99140;;;4.5;79.4
51195;BME280;37259;49.972;19.850;2023-04-28T05:25:45;99140;;;4.5;79.3
51195;BME280;37259;49.972;19.850;2023-04-28T05:26:45;99140;;;4.5;79.3
51195;BME280;37259;49.972;19.850;2023-04-28T05:27:45;99140;;;4.7;79.1
51195;BME280;37259;49.972;19.850;2023-04-28T05:28:45;99140;;;4.7;79
51195;BME280;37259;49.972;19.850;2023-04-28T05:29:45;99140;;;4.8;78.8
51195;BME280;37259;49.972;19.850;2023-04-28T05:30:45;99140;;;4.8;78.8
51195;BME280;37259;49.972;19.850;2023-04-28T05:31:45;99140;;;4.9;78.5
51195;BME280;37259;49.972;19.850;2023-04-28T05:32:45;99140;;;4.9;78.5
51195;BME280;37259;49.972;19.850;2023-04-28T05:33:45;99140;;;5;78.2
51195;BME280;37259;49.972;19.850;2023-04-28T05:34:45;99140;;;5.1;78.1
51195;BME280;37259;49.972;19.850;2023-04-28T05:35:45;99140;;;5.2;77.9
51195;BME280;37259;49.972;19.850;2023-04-28T05:36:45;99140;;;5.2;77.9
51195;BME280;37259;49.972;19.850;2023-04-28T05:37:45;99140;;;5.2;77.5
51195;BME280;37259;49.972;19.850;2023-04-28T05:38:45;99140;;;5.3;77.3
51195;BME280;37259;49.972;19.850;2023-04-28T05:39:45;99140;;;5.3;77.3
51195;BME280;37259;49.972;19.850;2023-04-28T05:40:45;99140;;;5.5;76.8
51195;BME280;37259;49.972;19.850;2023-04-28T05:41:45;99140;;;5.5;76.8
51195;BME280;37259;49.972;19.850;2023-04-28T05:42:45;99140;;;5.6;76.3